Time;durP1;ratioP1;P1;durP2;ratioP2;P2;SDS_P1;SDS_P2;PMS_P1;PMS_P2;Temp;Humidity;BMP_temperature;BMP_pressure;BME280_temperature;BME280_humidity;BME280_pressure;Samples;Min_cycle;Max_cycle;Signal;HPM_P1;HPM_P2
2021/07/01 00:00:07;;;;;;;38.43;20.33;;;15.80;93.60;;;;;;4972824;28;20174;-86
2021/07/01 00:02:33;;;;;;;36.60;20.33;;;15.80;93.70;;;;;;4974263;28;20163;-86
2021/07/01 00:04:59;;;;;;;37.87;19.40;;;15.80;93.60;;;;;;4973858;28;20195;-86
2021/07/01 00:07:24;;;;;;;37.87;20.27;;;15.80;93.50;;;;;;4974221;28;20545;-86
2021/07/01 00:09:50;;;;;;;33.03;16.73;;;15.80;93.50;;;;;;4972651;28;20554;-86
2021/07/01 00:12:15;;;;;;;30.33;16.47;;;15.80;93.50;;;;;;4972609;28;20277;-86
2021/07/01 00:14:41;;;;;;;28.13;16.00;;;15.70;93.40;;;;;;4973738;28;20613;-86
2021/07/01 00:17:07;;;;;;;30.00;14.40;;;15.80;93.50;;;;;;4973790;28;20171;-86
2021/07/01 00:19:32;;;;;;;25.83;14.97;;;15.80;93.30;;;;;;4972457;28;20207;-85
2021/07/01 00:21:58;;;;;;;26.50;14.23;;;15.70;93.50;;;;;;4973730;28;20179;-86
2021/07/01 00:24:24;;;;;;;28.63;15.25;;;15.70;93.40;;;;;;4973417;28;20332;-86
2021/07/01 00:26:49;;;;;;;34.60;16.15;;;15.70;93.60;;;;;;4973580;28;20224;-86
2021/07/01 00:29:15;;;;;;;30.95;15.18;;;15.80;93.60;;;;;;4973587;28;20186;-85
2021/07/01 00:31:40;;;;;;;37.10;16.15;;;15.80;93.60;;;;;;4973528;28;20254;-85
2021/07/01 00:34:07;;;;;;;34.50;16.30;;;15.80;93.50;;;;;;4972170;28;20186;-86
2021/07/01 00:36:32;;;;;;;31.77;16.10;;;15.70;93.60;;;;;;4973540;28;20171;-86
2021/07/01 00:38:58;;;;;;;33.80;16.93;;;15.70;93.70;;;;;;4972166;28;20203;-86
2021/07/01 00:41:24;;;;;;;32.45;17.23;;;15.70;93.70;;;;;;4973427;28;20171;-86
2021/07/01 00:43:50;;;;;;;28.67;16.27;;;15.70;93.70;;;;;;4972106;28;20193;-86
2021/07/01 00:46:16;;;;;;;27.13;14.57;;;15.70;93.60;;;;;;4972032;28;20203;-86
2021/07/01 00:48:42;;;;;;;28.17;15.47;;;15.70;93.60;;;;;;4973244;28;20643;-86
2021/07/01 00:51:07;;;;;;;24.87;15.50;;;15.70;93.70;;;;;;4988214;28;20281;-86
2021/07/01 00:53:33;;;;;;;27.80;15.48;;;15.70;93.70;;;;;;4972270;28;20246;-86
2021/07/01 00:56:01;;;;;;;27.23;15.90;;;15.70;93.70;;;;;;4988098;28;20199;-86
2021/07/01 00:58:27;;;;;;;34.10;16.00;;;15.70;93.60;;;;;;4973328;28;20199;-85
2021/07/01 01:01:02;;;;;;;28.60;16.87;;;15.70;93.70;;;;;;4973359;28;20303;-86
2021/07/01 01:03:38;;;;;;;29.25;16.75;;;15.70;93.80;;;;;;4971826;28;20162;-86
2021/07/01 01:06:05;;;;;;;22.73;15.48;;;15.70;93.80;;;;;;4973015;28;20281;-85
2021/07/01 01:08:31;;;;;;;29.73;16.37;;;15.80;93.70;;;;;;4987842;28;20186;-85
2021/07/01 01:10:56;;;;;;;31.60;16.75;;;15.70;93.70;;;;;;4971786;28;20179;-86
2021/07/01 01:13:26;;;;;;;32.95;18.08;;;15.70;93.70;;;;;;4987865;28;20681;-86
2021/07/01 01:15:52;;;;;;;31.73;17.10;;;15.70;93.60;;;;;;4972787;28;20276;-85
2021/07/01 01:18:18;;;;;;;33.80;17.43;;;15.70;93.60;;;;;;4971461;28;20203;-85
2021/07/01 01:20:44;;;;;;;28.90;17.80;;;15.70;93.70;;;;;;4987731;28;20787;-85
2021/07/01 01:23:10;;;;;;;30.33;18.57;;;15.70;93.70;;;;;;4987706;28;20189;-86
2021/07/01 01:25:35;;;;;;;31.17;18.60;;;15.70;93.70;;;;;;4987476;28;20317;-85
2021/07/01 01:28:01;;;;;;;33.93;18.90;;;15.70;93.70;;;;;;4971550;28;20191;-85
2021/07/01 01:30:27;;;;;;;32.50;19.30;;;15.70;93.70;;;;;;4971390;28;20186;-85
2021/07/01 01:32:52;;;;;;;42.93;18.57;;;15.70;93.80;;;;;;4972604;28;20214;-85
2021/07/01 01:35:18;;;;;;;33.97;19.37;;;15.70;93.80;;;;;;4972484;28;20207;-85
2021/07/01 01:37:43;;;;;;;33.03;19.07;;;15.70;93.80;;;;;;4972489;28;20211;-86
2021/07/01 01:40:09;;;;;;;37.20;19.30;;;15.70;93.80;;;;;;4987687;28;20178;-86
2021/07/01 01:42:35;;;;;;;37.45;19.88;;;15.70;93.90;;;;;;4987505;28;20662;-85
2021/07/01 01:45:01;;;;;;;35.97;19.70;;;15.70;93.80;;;;;;4987341;28;20226;-86
2021/07/01 01:47:26;;;;;;;32.63;20.47;;;15.70;93.80;;;;;;4972774;28;20224;-86
2021/07/01 01:49:52;;;;;;;35.30;20.10;;;15.70;93.80;;;;;;4972388;28;20589;-85
2021/07/01 01:52:18;;;;;;;33.53;19.70;;;15.60;93.80;;;;;;4971100;28;20187;-85
2021/07/01 01:54:43;;;;;;;36.20;19.63;;;15.70;93.90;;;;;;4972716;28;20202;-86
2021/07/01 01:57:09;;;;;;;36.60;19.90;;;15.60;93.90;;;;;;4971075;28;20535;-85
2021/07/01 01:59:35;;;;;;;34.63;20.50;;;15.60;93.90;;;;;;4987167;28;20206;-85
2021/07/01 02:02:01;;;;;;;39.67;20.03;;;15.60;93.90;;;;;;4972208;28;20654;-86
2021/07/01 02:04:27;;;;;;;35.57;20.37;;;15.70;93.90;;;;;;4986548;28;20690;-85
2021/07/01 02:06:54;;;;;;;29.93;18.73;;;15.60;93.90;;;;;;4972089;28;20186;-86
2021/07/01 02:09:21;;;;;;;33.40;19.27;;;15.70;93.90;;;;;;4972115;28;20205;-86
2021/07/01 02:11:47;;;;;;;35.37;19.53;;;15.70;93.90;;;;;;4972109;28;20175;-85
2021/07/01 02:14:13;;;;;;;35.60;20.07;;;15.60;93.90;;;;;;4970697;28;20209;-86
2021/07/01 02:16:39;;;;;;;39.20;19.40;;;15.60;93.90;;;;;;4986978;28;20289;-85
2021/07/01 02:19:06;;;;;;;42.53;20.13;;;15.60;93.90;;;;;;4971931;28;20385;-86
2021/07/01 02:21:32;;;;;;;38.67;20.23;;;15.70;93.90;;;;;;4971840;28;20179;-86
2021/07/01 02:23:58;;;;;;;33.63;20.10;;;15.60;93.90;;;;;;4971978;28;20526;-86
2021/07/01 02:26:23;;;;;;;34.28;21.00;;;15.60;94.00;;;;;;4971848;28;20183;-85
2021/07/01 02:28:49;;;;;;;38.27;20.67;;;15.70;94.00;;;;;;4971847;28;20175;-86
2021/07/01 02:31:14;;;;;;;31.40;20.60;;;15.70;94.00;;;;;;4971776;28;20174;-86
2021/07/01 02:33:40;;;;;;;39.07;21.17;;;15.70;93.90;;;;;;4970573;28;20286;-86
2021/07/01 02:36:06;;;;;;;42.47;20.83;;;15.80;93.80;;;;;;4971634;28;20197;-86
2021/07/01 02:38:32;;;;;;;32.00;20.23;;;15.80;93.70;;;;;;4971660;28;20205;-87
2021/07/01 02:40:58;;;;;;;35.85;20.45;;;15.80;93.70;;;;;;4971617;28;20575;-85
2021/07/01 02:43:23;;;;;;;36.92;21.05;;;15.70;93.60;;;;;;4970417;28;20179;-85
2021/07/01 02:45:49;;;;;;;36.13;22.25;;;15.80;93.60;;;;;;4971511;28;20198;-86
2021/07/01 02:48:15;;;;;;;33.55;21.52;;;15.70;93.60;;;;;;4971584;28;20175;-86
2021/07/01 02:50:41;;;;;;;31.23;20.83;;;15.80;93.80;;;;;;4986474;28;20179;-86
2021/07/01 02:53:07;;;;;;;42.13;23.38;;;15.70;93.80;;;;;;4971513;28;20175;-86
2021/07/01 02:55:34;;;;;;;38.90;22.63;;;15.70;93.80;;;;;;4971510;28;20202;-86
2021/07/01 02:58:00;;;;;;;35.10;22.92;;;15.80;93.80;;;;;;4971629;28;20178;-85
2021/07/01 03:00:26;;;;;;;38.33;22.67;;;15.80;93.80;;;;;;4986413;28;20175;-86
2021/07/01 03:02:51;;;;;;;33.63;21.00;;;15.80;93.80;;;;;;4971448;28;20178;-86
2021/07/01 03:05:17;;;;;;;39.30;23.77;;;15.80;93.80;;;;;;4986227;28;20198;-85
2021/07/01 03:07:43;;;;;;;38.95;23.13;;;15.80;93.80;;;;;;4970116;28;20175;-86
2021/07/01 03:10:09;;;;;;;35.13;22.95;;;15.80;93.80;;;;;;4970051;28;20547;-86
2021/07/01 03:12:34;;;;;;;38.72;23.20;;;15.90;93.70;;;;;;4971536;28;20171;-85
2021/07/01 03:15:00;;;;;;;33.95;23.92;;;15.90;93.70;;;;;;4986134;28;20606;-85
2021/07/01 03:17:25;;;;;;;47.33;25.80;;;15.80;93.70;;;;;;4972591;28;20175;-87
2021/07/01 03:19:51;;;;;;;41.43;24.00;;;15.80;93.80;;;;;;4974676;28;20209;-86
2021/07/01 03:22:17;;;;;;;38.55;24.83;;;15.80;93.90;;;;;;4974535;28;20214;-85
2021/07/01 03:24:42;;;;;;;42.60;24.98;;;15.80;94.00;;;;;;4974430;28;20260;-86
2021/07/01 03:27:09;;;;;;;37.85;23.77;;;15.90;94.00;;;;;;4974804;28;20535;-86
2021/07/01 03:29:34;;;;;;;39.55;24.27;;;15.80;94.00;;;;;;4974816;28;20304;-86
2021/07/01 03:32:00;;;;;;;43.97;23.58;;;15.90;94.10;;;;;;4974884;28;20234;-86
2021/07/01 03:34:26;;;;;;;35.80;21.73;;;15.90;94.20;;;;;;4974416;28;20209;-86
2021/07/01 03:36:51;;;;;;;32.47;20.67;;;16.00;94.20;;;;;;4974419;28;20175;-86
2021/07/01 03:39:17;;;;;;;33.30;20.30;;;16.00;94.20;;;;;;4974582;28;20198;-87
2021/07/01 03:41:43;;;;;;;29.00;20.58;;;16.00;94.20;;;;;;4973143;28;20182;-87
2021/07/01 03:44:10;;;;;;;27.00;18.67;;;16.00;94.20;;;;;;4989198;28;20186;-87
2021/07/01 03:46:37;;;;;;;25.05;18.73;;;16.00;94.20;;;;;;4973049;28;20183;-86
2021/07/01 03:49:03;;;;;;;25.17;18.05;;;16.00;94.20;;;;;;4989225;28;20229;-86
2021/07/01 03:51:29;;;;;;;24.50;18.05;;;16.10;94.30;;;;;;4989076;28;20194;-86
2021/07/01 03:53:55;;;;;;;27.25;18.55;;;16.10;94.30;;;;;;4974319;28;20539;-86
2021/07/01 03:56:20;;;;;;;25.77;17.85;;;16.10;94.30;;;;;;4989181;28;20191;-87
2021/07/01 03:58:46;;;;;;;25.77;17.77;;;16.10;94.40;;;;;;4974291;28;20210;-86
2021/07/01 04:01:12;;;;;;;29.63;18.33;;;16.10;94.50;;;;;;4974095;28;20203;-85
2021/07/01 04:03:37;;;;;;;22.88;16.55;;;16.10;94.60;;;;;;4972789;28;20179;-85
2021/07/01 04:06:04;;;;;;;27.02;18.63;;;16.20;94.60;;;;;;4972643;28;20206;-85
2021/07/01 04:08:29;;;;;;;30.17;18.95;;;16.20;94.60;;;;;;4973909;28;20261;-86
2021/07/01 04:10:55;;;;;;;25.60;19.27;;;16.20;94.60;;;;;;4972654;28;20689;-86
2021/07/01 04:13:21;;;;;;;29.90;20.65;;;16.20;94.60;;;;;;4973828;28;20182;-86
2021/07/01 04:15:47;;;;;;;39.13;22.88;;;16.20;94.60;;;;;;4988847;28;20282;-87
2021/07/01 04:18:14;;;;;;;31.80;22.27;;;16.20;94.60;;;;;;4974041;28;20348;-87
2021/07/01 04:20:41;;;;;;;33.88;22.58;;;16.20;94.60;;;;;;4972823;28;20171;-87
2021/07/01 04:23:07;;;;;;;32.22;23.45;;;16.20;94.60;;;;;;4974142;28;20167;-87
2021/07/01 04:25:33;;;;;;;31.30;23.02;;;16.20;94.60;;;;;;5124537;23;20235;-89
2021/07/01 04:27:59;;;;;;;29.15;21.50;;;16.30;94.50;;;;;;5055318;28;20176;-89
2021/07/01 04:30:25;;;;;;;30.48;22.45;;;16.30;94.60;;;;;;5054298;28;20567;-89
2021/07/01 04:32:50;;;;;;;30.67;21.17;;;16.30;94.50;;;;;;5055286;28;20586;-89
2021/07/01 04:35:16;;;;;;;29.45;21.02;;;16.40;94.50;;;;;;5054162;28;20266;-89
2021/07/01 04:37:41;;;;;;;28.17;20.33;;;16.40;94.50;;;;;;5054182;28;20644;-89
2021/07/01 04:40:09;;;;;;;30.58;21.83;;;16.40;94.50;;;;;;5070743;28;20204;-89
2021/07/01 04:42:36;;;;;;;29.77;21.77;;;16.40;94.50;;;;;;5055885;28;20175;-89
2021/07/01 04:45:03;;;;;;;27.70;20.75;;;16.30;94.60;;;;;;5053969;28;20652;-89
2021/07/01 04:47:29;;;;;;;26.48;20.92;;;16.40;94.60;;;;;;5053908;28;20176;-89
2021/07/01 04:49:55;;;;;;;28.92;20.40;;;16.40;94.60;;;;;;5055466;28;20552;-89
2021/07/01 04:52:20;;;;;;;29.83;20.38;;;16.50;94.60;;;;;;5053903;28;20179;-89
2021/07/01 04:54:46;;;;;;;28.10;20.85;;;16.50;94.70;;;;;;5054998;28;20524;-88
2021/07/01 04:57:12;;;;;;;32.72;22.23;;;16.60;94.70;;;;;;5054160;28;20176;-89
2021/07/01 04:59:37;;;;;;;32.83;21.73;;;16.60;94.70;;;;;;5053711;28;20226;-89
2021/07/01 05:02:03;;;;;;;27.25;20.30;;;16.60;94.70;;;;;;5055213;28;20173;-89
2021/07/01 05:04:28;;;;;;;22.23;18.30;;;16.70;94.80;;;;;;5053649;28;20663;-89
2021/07/01 05:06:54;;;;;;;19.13;16.75;;;16.70;94.70;;;;;;5053673;28;20660;-89
2021/07/01 05:09:20;;;;;;;23.27;17.65;;;16.80;94.70;;;;;;5053527;28;20181;-89
2021/07/01 05:11:45;;;;;;;25.00;18.33;;;16.80;94.80;;;;;;5053321;28;20183;-89
2021/07/01 05:14:11;;;;;;;25.80;18.17;;;16.90;94.80;;;;;;5053549;28;20266;-89
2021/07/01 05:16:36;;;;;;;24.10;17.98;;;17.00;94.90;;;;;;5070078;28;20334;-89
2021/07/01 05:19:02;;;;;;;18.70;16.48;;;17.00;94.80;;;;;;5054843;28;20203;-89
2021/07/01 05:21:28;;;;;;;21.73;16.90;;;16.90;94.80;;;;;;5054580;28;20175;-88
2021/07/01 05:23:54;;;;;;;22.08;16.52;;;16.90;94.80;;;;;;5053812;28;20172;-89
2021/07/01 05:26:20;;;;;;;21.77;16.48;;;16.90;94.80;;;;;;5053013;28;20347;-89
2021/07/01 05:28:46;;;;;;;24.40;15.55;;;17.00;94.80;;;;;;5054477;28;20172;-89
2021/07/01 05:31:12;;;;;;;22.42;16.10;;;17.00;94.80;;;;;;5053139;28;20187;-88
2021/07/01 05:33:38;;;;;;;19.48;14.93;;;17.10;94.80;;;;;;5053321;28;20553;-89
2021/07/01 05:36:04;;;;;;;19.95;14.85;;;17.20;94.90;;;;;;5053017;28;20196;-89
2021/07/01 05:38:30;;;;;;;17.88;13.88;;;17.20;94.90;;;;;;5054119;28;20196;-89
2021/07/01 05:40:56;;;;;;;19.58;14.48;;;17.30;95.00;;;;;;5052411;28;20175;-88
2021/07/01 05:43:21;;;;;;;20.00;14.10;;;17.30;95.00;;;;;;5053005;28;20175;-89
2021/07/01 05:45:47;;;;;;;17.70;13.55;;;17.40;95.00;;;;;;5054017;28;20208;-88
2021/07/01 05:48:13;;;;;;;15.02;13.43;;;17.50;95.10;;;;;;5053190;28;20176;-89
2021/07/01 05:50:44;;;;;;;19.58;14.75;;;17.50;95.10;;;;;;5052898;28;20183;-89
2021/07/01 05:53:12;;;;;;;14.40;12.93;;;17.60;95.20;;;;;;5054293;28;20156;-89
2021/07/01 05:55:38;;;;;;;15.73;13.95;;;17.70;95.20;;;;;;5052635;28;20195;-88
2021/07/01 05:58:04;;;;;;;19.25;14.70;;;17.70;95.10;;;;;;5052532;28;20647;-88
2021/07/01 06:00:30;;;;;;;17.33;13.75;;;17.70;95.10;;;;;;5052587;28;20176;-89
2021/07/01 06:02:56;;;;;;;18.30;13.43;;;17.80;95.10;;;;;;5052660;28;20176;-89
2021/07/01 06:05:22;;;;;;;15.88;13.50;;;17.80;95.10;;;;;;5052480;28;20203;-88
2021/07/01 06:07:56;;;;;;;16.63;12.60;;;17.70;95.10;;;;;;5053573;28;20172;-88
2021/07/01 06:10:24;;;;;;;20.95;14.70;;;17.80;95.10;;;;;;5069045;28;20165;-87
2021/07/01 06:12:53;;;;;;;19.13;14.45;;;17.70;95.10;;;;;;5052266;28;20255;-87
2021/07/01 06:15:19;;;;;;;20.85;14.05;;;17.80;95.10;;;;;;5052318;28;20235;-88
2021/07/01 06:17:47;;;;;;;15.90;13.48;;;17.80;95.10;;;;;;5052367;28;20168;-89
2021/07/01 06:20:13;;;;;;;14.23;12.40;;;17.80;95.10;;;;;;5069004;28;20236;-89
2021/07/01 06:22:40;;;;;;;16.58;13.13;;;17.80;95.00;;;;;;5053468;28;20168;-89
2021/07/01 06:25:06;;;;;;;14.85;12.55;;;17.80;95.00;;;;;;5052029;28;20206;-89
2021/07/01 06:29:58;;;;;;;16.85;12.52;;;17.80;94.80;;;;;;5053625;28;20168;-89
2021/07/01 06:32:23;;;;;;;16.63;12.85;;;17.80;94.80;;;;;;5053417;28;20184;-87
2021/07/01 06:34:49;;;;;;;15.15;13.05;;;17.80;94.70;;;;;;5052083;28;20191;-88
2021/07/01 06:37:16;;;;;;;17.70;13.35;;;17.70;94.70;;;;;;5052512;28;20263;-89
2021/07/01 06:39:46;;;;;;;16.60;13.02;;;17.70;94.70;;;;;;5053378;28;20192;-89
2021/07/01 06:42:13;;;;;;;20.65;12.77;;;17.70;94.70;;;;;;5053316;28;20172;-89
2021/07/01 06:44:40;;;;;;;14.88;12.23;;;17.70;94.70;;;;;;5051948;28;20206;-88
2021/07/01 06:47:09;;;;;;;14.95;13.35;;;17.70;94.70;;;;;;5053222;28;20221;-89
2021/07/01 06:49:37;;;;;;;18.95;13.63;;;17.70;94.70;;;;;;5052256;28;20180;-89
2021/07/01 06:52:05;;;;;;;20.25;14.27;;;17.70;94.70;;;;;;5056039;28;20648;-89
2021/07/01 06:54:31;;;;;;;18.27;14.50;;;17.70;94.70;;;;;;5056153;28;20184;-89
2021/07/01 06:56:58;;;;;;;17.88;14.30;;;17.70;94.70;;;;;;5056002;28;20314;-89
2021/07/01 06:59:24;;;;;;;22.00;14.70;;;17.80;94.80;;;;;;5057171;28;20207;-89
2021/07/01 07:01:50;;;;;;;17.23;13.65;;;17.80;94.80;;;;;;5056022;28;20172;-89
2021/07/01 07:04:19;;;;;;;16.50;13.45;;;17.80;94.90;;;;;;5057137;28;20709;-89
2021/07/01 07:06:45;;;;;;;19.10;14.55;;;17.80;94.80;;;;;;5055879;28;20192;-90
2021/07/01 07:09:13;;;;;;;19.17;14.57;;;17.80;94.90;;;;;;5055807;28;20640;-90
2021/07/01 07:11:39;;;;;;;22.70;15.48;;;17.90;94.90;;;;;;5072562;28;20229;-89
2021/07/01 07:14:05;;;;;;;16.45;14.60;;;17.90;94.90;;;;;;5055801;28;20244;-89
2021/07/01 07:16:32;;;;;;;24.05;15.48;;;18.00;94.90;;;;;;5055768;28;20192;-89
2021/07/01 07:19:01;;;;;;;18.63;14.20;;;18.00;95.00;;;;;;5055605;28;20203;-89
2021/07/01 07:21:33;;;;;;;20.48;14.80;;;18.00;94.90;;;;;;5057132;28;20183;-89
2021/07/01 07:24:02;;;;;;;18.88;14.40;;;18.00;94.90;;;;;;5056910;28;20647;-89
2021/07/01 07:26:28;;;;;;;19.77;13.32;;;17.90;94.80;;;;;;5055670;28;20216;-89
2021/07/01 07:28:55;;;;;;;18.63;14.45;;;17.90;94.80;;;;;;5056682;28;20218;-89
2021/07/01 07:31:31;;;;;;;22.95;14.02;;;17.90;94.80;;;;;;5055399;28;20552;-88
2021/07/01 07:34:00;;;;;;;15.55;13.07;;;17.90;94.70;;;;;;5055426;28;20168;-88
2021/07/01 07:36:27;;;;;;;19.88;13.82;;;17.90;94.70;;;;;;5055300;28;20200;-88
2021/07/01 07:38:55;;;;;;;16.25;12.35;;;17.90;94.70;;;;;;5055293;28;20206;-90
2021/07/01 07:41:22;;;;;;;20.08;13.18;;;17.90;94.70;;;;;;5055392;28;20172;-89
2021/07/01 07:43:49;;;;;;;23.17;13.57;;;17.90;94.70;;;;;;5056432;28;20174;-89
2021/07/01 07:46:20;;;;;;;19.67;13.25;;;17.90;94.70;;;;;;5056400;28;20187;-89
2021/07/01 07:48:45;;;;;;;18.58;11.95;;;18.00;94.80;;;;;;5056397;28;20168;-89
2021/07/01 07:51:16;;;;;;;21.52;12.52;;;18.00;94.80;;;;;;5056363;28;20165;-89
2021/07/01 07:53:47;;;;;;;17.05;13.73;;;18.00;94.80;;;;;;5055658;28;20164;-89
2021/07/01 07:56:15;;;;;;;19.75;12.13;;;18.00;94.80;;;;;;5055231;28;20192;-89
2021/07/01 07:58:46;;;;;;;17.58;11.90;;;18.10;94.90;;;;;;5054821;28;20702;-89
2021/07/01 08:01:12;;;;;;;15.82;11.77;;;18.10;94.90;;;;;;5056145;28;20171;-89
2021/07/01 08:03:40;;;;;;;14.00;11.00;;;18.10;94.80;;;;;;5055659;28;20248;-89
2021/07/01 08:06:07;;;;;;;17.60;10.38;;;18.10;94.70;;;;;;5056315;28;20188;-89
2021/07/01 08:08:36;;;;;;;13.80;10.20;;;18.10;94.70;;;;;;5054812;28;20211;-89
2021/07/01 08:11:07;;;;;;;11.38;9.60;;;18.20;94.60;;;;;;5054605;28;20271;-88
2021/07/01 08:13:34;;;;;;;12.38;9.63;;;18.10;94.50;;;;;;5054633;28;20171;-88
2021/07/01 08:16:00;;;;;;;14.82;10.07;;;18.10;94.50;;;;;;5055710;28;20195;-89
2021/07/01 08:18:46;;;;;;;11.90;10.07;;;18.20;94.60;;;;;;5056001;28;20613;-89
2021/07/01 08:21:13;;;;;;;12.80;10.63;;;18.20;94.60;;;;;;5054781;28;20255;-89
2021/07/01 08:23:41;;;;;;;12.75;10.23;;;18.20;94.60;;;;;;5054413;28;20184;-89
2021/07/01 08:26:08;;;;;;;15.40;9.52;;;18.20;94.50;;;;;;5055359;28;20203;-88
2021/07/01 08:28:35;;;;;;;19.38;10.73;;;18.20;94.40;;;;;;5054301;28;20214;-88
2021/07/01 08:31:12;;;;;;;17.73;10.05;;;18.30;94.30;;;;;;5055525;28;20200;-88
2021/07/01 08:33:41;;;;;;;12.93;10.40;;;18.30;94.30;;;;;;5054263;28;20179;-88
2021/07/01 08:36:16;;;;;;;13.25;9.10;;;18.30;94.30;;;;;;5054127;28;20203;-88
2021/07/01 08:38:43;;;;;;;15.90;10.15;;;18.40;94.30;;;;;;5055319;28;20225;-88
2021/07/01 08:41:24;;;;;;;20.55;10.90;;;18.50;94.30;;;;;;5054092;28;20550;-88
2021/07/01 08:43:58;;;;;;;16.48;10.82;;;18.60;94.30;;;;;;5054880;28;20175;-88
2021/07/01 08:46:49;;;;;;;13.70;10.68;;;18.70;94.30;;;;;;5053962;28;20191;-88
2021/07/01 08:49:32;;;;;;;14.75;10.13;;;18.70;94.40;;;;;;5053891;28;20168;-88
2021/07/01 08:52:03;;;;;;;15.00;10.15;;;18.70;94.20;;;;;;5054272;28;20222;-89
2021/07/01 08:54:34;;;;;;;14.77;9.73;;;18.60;93.80;;;;;;5053961;28;20179;-89
2021/07/01 08:57:01;;;;;;;13.15;10.07;;;18.60;93.60;;;;;;5053810;28;20203;-91
2021/07/01 08:59:44;;;;;;;16.15;9.98;;;18.60;93.60;;;;;;5055077;28;20219;-91
2021/07/01 09:02:11;;;;;;;11.25;8.93;;;18.60;93.40;;;;;;5055021;28;20164;-91
2021/07/01 09:05:06;;;;;;;14.93;9.93;;;18.50;93.00;;;;;;5054982;28;20206;-91
2021/07/01 09:07:35;;;;;;;14.38;9.57;;;18.50;93.00;;;;;;5052820;28;20188;-91
2021/07/01 09:10:01;;;;;;;19.30;10.10;;;18.60;93.20;;;;;;5054985;28;20221;-91
2021/07/01 09:12:28;;;;;;;15.48;10.75;;;18.60;93.40;;;;;;5054923;28;20168;-92
2021/07/01 09:14:59;;;;;;;18.90;10.15;;;18.70;93.20;;;;;;5053730;28;20203;-91
2021/07/01 09:17:30;;;;;;;14.82;10.00;;;18.70;93.20;;;;;;5055022;28;20178;-91
2021/07/01 09:19:58;;;;;;;14.60;9.90;;;18.60;92.70;;;;;;5054796;28;20188;-91
2021/07/01 09:22:26;;;;;;;17.45;10.25;;;18.60;92.50;;;;;;5055076;28;20178;-92
2021/07/01 09:24:52;;;;;;;17.63;9.57;;;18.70;92.30;;;;;;5053466;28;20544;-91
2021/07/01 09:27:19;;;;;;;11.32;8.55;;;18.70;92.30;;;;;;5054801;28;20175;-90
2021/07/01 09:29:47;;;;;;;12.52;9.48;;;18.80;92.00;;;;;;5054809;28;20172;-90
2021/07/01 09:32:14;;;;;;;17.17;9.32;;;18.90;92.30;;;;;;5054452;28;20230;-91
2021/07/01 09:34:41;;;;;;;16.20;9.73;;;19.00;91.90;;;;;;5054306;28;20255;-90
2021/07/01 09:37:08;;;;;;;13.73;9.18;;;19.10;91.50;;;;;;5053336;28;20192;-90
2021/07/01 09:39:34;;;;;;;13.75;10.10;;;19.10;91.60;;;;;;5054399;28;20609;-90
2021/07/01 09:42:01;;;;;;;11.80;7.97;;;19.20;91.40;;;;;;5054278;28;20168;-90
2021/07/01 09:44:29;;;;;;;9.55;7.45;;;19.20;90.90;;;;;;5054156;28;20168;-90
2021/07/01 09:46:58;;;;;;;9.38;7.53;;;19.20;90.60;;;;;;5053154;28;20192;-91
2021/07/01 09:49:33;;;;;;;12.48;7.25;;;19.20;90.20;;;;;;5054014;28;20218;-90
2021/07/01 09:52:05;;;;;;;9.68;7.30;;;19.20;89.80;;;;;;5054340;28;20166;-90
2021/07/01 09:54:35;;;;;;;11.40;6.72;;;19.30;89.70;;;;;;5052755;28;20282;-90
2021/07/01 09:57:08;;;;;;;8.98;6.05;;;19.30;89.20;;;;;;5053900;28;20192;-91
2021/07/01 09:59:43;;;;;;;8.55;6.85;;;19.30;88.70;;;;;;5054235;28;20710;-91
2021/07/01 10:02:20;;;;;;;7.00;5.90;;;19.40;88.90;;;;;;5054244;28;20155;-91
2021/07/01 10:04:46;;;;;;;7.38;5.70;;;19.40;88.10;;;;;;5053918;28;20160;-91
2021/07/01 10:07:20;;;;;;;10.13;6.22;;;19.40;88.10;;;;;;5053843;28;20165;-91
2021/07/01 10:09:50;;;;;;;8.95;5.97;;;19.50;88.30;;;;;;5054081;28;20168;-91
2021/07/01 10:12:24;;;;;;;8.60;5.38;;;19.50;88.20;;;;;;5053717;28;20179;-91
2021/07/01 10:14:52;;;;;;;8.57;6.28;;;19.60;87.50;;;;;;5053701;28;20168;-90
2021/07/01 10:17:20;;;;;;;7.95;6.13;;;19.60;87.20;;;;;;5054005;28;20168;-91
2021/07/01 10:19:47;;;;;;;8.02;6.22;;;19.70;87.50;;;;;;5053458;28;20234;-91
2021/07/01 10:22:18;;;;;;;6.78;5.40;;;19.70;88.00;;;;;;5069116;28;20183;-91
2021/07/01 10:24:58;;;;;;;7.30;5.45;;;19.80;87.40;;;;;;5053563;28;20160;-91
2021/07/01 10:27:31;;;;;;;6.20;5.53;;;19.90;87.00;;;;;;5021851;23;20225;-86
2021/07/01 10:29:59;;;;;;;8.27;5.30;;;19.90;86.80;;;;;;4990972;28;20189;-86
2021/07/01 10:32:43;;;;;;;10.90;5.57;;;19.90;85.60;;;;;;4991549;28;20174;-86
2021/07/01 10:35:29;;;;;;;7.72;6.35;;;19.90;86.60;;;;;;4991228;28;20190;-87
2021/07/01 10:38:00;;;;;;;8.38;5.82;;;20.00;87.40;;;;;;4954651;28;20167;-89
2021/07/01 10:40:27;;;;;;;8.52;5.45;;;20.00;86.30;;;;;;4954622;28;20174;-89
2021/07/01 10:42:55;;;;;;;6.20;5.55;;;20.00;86.00;;;;;;4954580;28;20647;-88
2021/07/01 10:45:22;;;;;;;9.00;5.97;;;20.00;85.70;;;;;;4954439;28;20600;-88
2021/07/01 10:47:47;;;;;;;8.27;5.50;;;20.10;86.50;;;;;;4954486;28;20175;-89
2021/07/01 10:50:20;;;;;;;6.85;5.75;;;20.20;86.40;;;;;;4954485;28;20179;-88
2021/07/01 10:52:46;;;;;;;8.07;5.20;;;20.20;85.90;;;;;;4954639;28;20171;-89
2021/07/01 10:55:13;;;;;;;7.75;5.70;;;20.20;85.00;;;;;;4971662;28;20244;-89
2021/07/01 10:57:56;;;;;;;8.27;5.18;;;20.20;85.30;;;;;;4954390;28;20202;-89
2021/07/01 11:00:42;;;;;;;10.85;5.32;;;20.30;85.10;;;;;;4954432;28;20282;-89
2021/07/01 11:03:18;;;;;;;10.15;5.70;;;20.30;84.80;;;;;;4954416;28;20194;-89
2021/07/01 11:05:44;;;;;;;6.28;5.25;;;20.30;85.20;;;;;;4954347;28;20191;-89
2021/07/01 11:08:29;;;;;;;6.05;5.45;;;20.50;85.30;;;;;;4970458;28;20198;-89
2021/07/01 11:10:55;;;;;;;7.53;5.28;;;20.60;85.10;;;;;;4954404;28;20221;-89
2021/07/01 11:13:24;;;;;;;7.47;4.65;;;20.70;84.30;;;;;;4971417;28;20182;-88
2021/07/01 11:16:05;;;;;;;8.23;4.93;;;20.70;83.20;;;;;;4954111;28;20195;-89
2021/07/01 11:18:44;;;;;;;11.10;5.10;;;20.70;83.70;;;;;;4971379;28;20201;-88
2021/07/01 11:21:18;;;;;;;11.70;5.78;;;20.70;83.80;;;;;;4954105;28;20662;-89
2021/07/01 11:24:05;;;;;;;11.13;5.47;;;20.80;83.80;;;;;;4954237;28;20185;-89
2021/07/01 11:26:32;;;;;;;5.82;5.05;;;20.90;83.80;;;;;;4963857;28;20301;-88
2021/07/01 11:29:00;;;;;;;7.00;5.18;;;21.20;83.30;;;;;;4954083;28;20186;-88
2021/07/01 11:31:40;;;;;;;5.95;5.35;;;21.30;82.60;;;;;;4954023;28;20650;-88
2021/07/01 11:34:07;;;;;;;5.60;4.93;;;21.40;82.40;;;;;;4971432;28;20207;-88
2021/07/01 11:36:35;;;;;;;6.20;5.57;;;21.60;81.90;;;;;;4971173;28;20199;-88
2021/07/01 11:39:14;;;;;;;8.13;5.40;;;21.50;80.40;;;;;;4973228;28;20268;-88
2021/07/01 11:41:43;;;;;;;8.80;5.65;;;21.70;81.50;;;;;;4957449;28;20566;-88
2021/07/01 11:44:11;;;;;;;8.10;4.95;;;21.90;81.50;;;;;;4974381;28;20587;-88
2021/07/01 11:46:39;;;;;;;10.55;5.22;;;22.10;79.10;;;;;;4974277;28;20217;-87
2021/07/01 11:49:05;;;;;;;9.02;5.40;;;22.40;80.90;;;;;;4974246;28;20662;-88
2021/07/01 11:51:32;;;;;;;8.55;5.25;;;22.70;79.00;;;;;;4957066;28;20182;-87
2021/07/01 11:53:58;;;;;;;8.55;4.93;;;22.90;75.90;;;;;;4974264;28;20175;-87
2021/07/01 11:56:25;;;;;;;5.18;4.68;;;22.70;76.90;;;;;;4974273;28;20194;-88
2021/07/01 11:58:51;;;;;;;7.78;5.30;;;22.90;77.00;;;;;;4974175;28;20226;-88
2021/07/01 12:01:18;;;;;;;7.43;5.05;;;22.90;77.10;;;;;;4974107;28;20171;-88
2021/07/01 12:03:51;;;;;;;5.78;5.18;;;22.90;76.40;;;;;;4956809;28;20179;-87
2021/07/01 12:06:55;;;;;;;6.03;5.43;;;22.70;76.60;;;;;;4972792;28;20701;-88
2021/07/01 12:09:22;;;;;;;8.93;6.47;;;22.40;78.50;;;;;;4956716;28;20662;-88
2021/07/01 12:12:03;;;;;;;7.43;5.95;;;22.50;78.20;;;;;;4956929;28;20316;-88
2021/07/01 12:14:35;;;;;;;7.70;5.95;;;22.20;79.00;;;;;;4973915;28;20174;-87
2021/07/01 12:17:02;;;;;;;10.10;5.53;;;22.30;78.50;;;;;;4956514;28;20210;-88
2021/07/01 12:19:45;;;;;;;7.47;5.75;;;22.20;78.30;;;;;;4956533;28;20598;-88
2021/07/01 12:22:44;;;;;;;11.27;6.25;;;22.40;79.40;;;;;;4956613;28;20174;-87
2021/07/01 12:25:24;;;;;;;11.30;5.68;;;22.80;78.60;;;;;;4956847;28;20179;-87
2021/07/01 12:28:05;;;;;;;12.07;5.50;;;23.20;77.40;;;;;;4958154;28;20195;-86
2021/07/01 12:30:57;;;;;;;5.32;4.82;;;23.20;71.20;;;;;;4956579;28;20176;-87
2021/07/01 12:33:43;;;;;;;8.25;5.80;;;23.20;72.40;;;;;;4956638;28;20159;-87
2021/07/01 12:36:10;;;;;;;6.00;5.15;;;23.30;73.80;;;;;;4956814;28;20198;-89
2021/07/01 12:38:37;;;;;;;8.68;5.35;;;23.00;74.50;;;;;;4974188;28;20194;-87